N2RF KVNY-KOAK
Flight info
| Callsign | N2RF |
|---|---|
| Flight time | 0h 54m |
| Altitude | 30000 |
| Route | CANOG3 IPIHO COREZ RGOOD EMZOH4 |
| Aircraft | LJ35/M-SGHRWXY/SB1 |
Departure
| Time | 2026-04-20 20:26 |
|---|---|
| Airport | Van Nuys Airport (KVNY) |
Arrival
| Time | 2026-04-20 21:21 |
|---|---|
| Airport | San Francisco Bay Oakland International Airport (KOAK) |
| Time | Latitude | Longitude | Altitude | Speed | Heading |
|---|---|---|---|---|---|
| 2026-04-20 20:26 | 34.40273 | -118.69470 | 21110 ft | 345 kts | 325° |
| 2026-04-20 20:26 | 34.42389 | -118.70877 | 21843 ft | 349 kts | 326° |
| 2026-04-20 20:27 | 34.44525 | -118.72300 | 22526 ft | 352 kts | 325° |
| 2026-04-20 20:27 | 34.46675 | -118.73756 | 23249 ft | 355 kts | 325° |
| 2026-04-20 20:27 | 34.48845 | -118.75226 | 23919 ft | 359 kts | 326° |
| 2026-04-20 20:27 | 34.51042 | -118.76707 | 24485 ft | 363 kts | 326° |
| 2026-04-20 20:28 | 34.52513 | -118.77698 | 24888 ft | 365 kts | 326° |
| 2026-04-20 20:28 | 34.55505 | -118.79719 | 25672 ft | 370 kts | 326° |
| 2026-04-20 20:28 | 34.57765 | -118.81249 | 26250 ft | 375 kts | 326° |
| 2026-04-20 20:28 | 34.60054 | -118.82798 | 26847 ft | 378 kts | 327° |
| 2026-04-20 20:29 | 34.62365 | -118.84359 | 27455 ft | 381 kts | 326° |
| 2026-04-20 20:29 | 34.64665 | -118.85919 | 27991 ft | 385 kts | 326° |
| 2026-04-20 20:29 | 34.67021 | -118.87518 | 28580 ft | 389 kts | 327° |
| 2026-04-20 20:29 | 34.69405 | -118.89134 | 29180 ft | 393 kts | 327° |
| 2026-04-20 20:30 | 34.71808 | -118.90764 | 29752 ft | 398 kts | 327° |
| 2026-04-20 20:30 | 34.74251 | -118.92425 | 30032 ft | 408 kts | 327° |
| 2026-04-20 20:30 | 34.79267 | -118.95836 | 30032 ft | 417 kts | 327° |
| 2026-04-20 20:31 | 34.84341 | -118.99289 | 30034 ft | 423 kts | 327° |
| 2026-04-20 20:31 | 34.89501 | -119.02809 | 30019 ft | 427 kts | 327° |
| 2026-04-20 20:32 | 34.94698 | -119.06356 | 30013 ft | 429 kts | 327° |
| 2026-04-20 20:32 | 34.99914 | -119.09925 | 30010 ft | 430 kts | 327° |
| 2026-04-20 20:33 | 35.05142 | -119.13505 | 30005 ft | 431 kts | 327° |
| 2026-04-20 20:33 | 35.10375 | -119.17095 | 30000 ft | 432 kts | 327° |
| 2026-04-20 20:34 | 35.15618 | -119.20696 | 29995 ft | 432 kts | 327° |
| 2026-04-20 20:34 | 35.20844 | -119.24292 | 29993 ft | 433 kts | 327° |
| 2026-04-20 20:35 | 35.26110 | -119.27920 | 29997 ft | 433 kts | 327° |
| 2026-04-20 20:35 | 35.30475 | -119.30932 | 29992 ft | 433 kts | 327° |
| 2026-04-20 20:36 | 35.36590 | -119.35158 | 29989 ft | 434 kts | 327° |
| 2026-04-20 20:36 | 35.40998 | -119.38208 | 29992 ft | 434 kts | 327° |
| 2026-04-20 20:37 | 35.46232 | -119.41835 | 29996 ft | 434 kts | 327° |
| 2026-04-20 20:37 | 35.51493 | -119.45487 | 29999 ft | 434 kts | 327° |
| 2026-04-20 20:38 | 35.56628 | -119.49357 | 29997 ft | 429 kts | 317° |
| 2026-04-20 20:38 | 35.61184 | -119.54020 | 30002 ft | 429 kts | 316° |
| 2026-04-20 20:39 | 35.65783 | -119.58698 | 30003 ft | 429 kts | 316° |
| 2026-04-20 20:39 | 35.70346 | -119.63373 | 30005 ft | 429 kts | 316° |
| 2026-04-20 20:40 | 35.74935 | -119.68068 | 30003 ft | 429 kts | 316° |
| 2026-04-20 20:40 | 35.79527 | -119.72781 | 30003 ft | 429 kts | 315° |
| 2026-04-20 20:41 | 35.84113 | -119.77490 | 30008 ft | 429 kts | 315° |
| 2026-04-20 20:41 | 35.88704 | -119.82213 | 30009 ft | 429 kts | 315° |
| 2026-04-20 20:42 | 35.93149 | -119.87112 | 30011 ft | 427 kts | 311° |
| 2026-04-20 20:42 | 35.97398 | -119.92179 | 30008 ft | 427 kts | 311° |
| 2026-04-20 20:43 | 36.01704 | -119.97260 | 30012 ft | 427 kts | 311° |
| 2026-04-20 20:43 | 36.05988 | -120.02360 | 30012 ft | 427 kts | 311° |
| 2026-04-20 20:44 | 36.10278 | -120.07454 | 30008 ft | 428 kts | 311° |
| 2026-04-20 20:44 | 36.14564 | -120.12561 | 30010 ft | 428 kts | 311° |
| 2026-04-20 20:45 | 36.16712 | -120.15125 | 29816 ft | 430 kts | 311° |
| 2026-04-20 20:45 | 36.18846 | -120.17667 | 29546 ft | 424 kts | 310° |
| 2026-04-20 20:45 | 36.20962 | -120.20199 | 29272 ft | 436 kts | 310° |
| 2026-04-20 20:45 | 36.23180 | -120.22862 | 29014 ft | 448 kts | 311° |
| 2026-04-20 20:46 | 36.25433 | -120.25546 | 28757 ft | 449 kts | 311° |
| 2026-04-20 20:46 | 36.27682 | -120.28228 | 28502 ft | 449 kts | 310° |
| 2026-04-20 20:46 | 36.29928 | -120.30925 | 28251 ft | 449 kts | 310° |
| 2026-04-20 20:46 | 36.32172 | -120.33623 | 27999 ft | 449 kts | 310° |
| 2026-04-20 20:47 | 36.34417 | -120.36316 | 27747 ft | 448 kts | 310° |
| 2026-04-20 20:47 | 36.36659 | -120.39006 | 27498 ft | 448 kts | 310° |
| 2026-04-20 20:47 | 36.38900 | -120.41699 | 27252 ft | 446 kts | 310° |
| 2026-04-20 20:47 | 36.41105 | -120.44351 | 27005 ft | 438 kts | 309° |
| 2026-04-20 20:48 | 36.43251 | -120.46939 | 26759 ft | 433 kts | 309° |
| 2026-04-20 20:48 | 36.45405 | -120.49538 | 26506 ft | 430 kts | 309° |
| 2026-04-20 20:48 | 36.47554 | -120.52132 | 26260 ft | 432 kts | 309° |
| 2026-04-20 20:48 | 36.49709 | -120.54734 | 26018 ft | 433 kts | 309° |
| 2026-04-20 20:49 | 36.51877 | -120.57354 | 25779 ft | 435 kts | 309° |
| 2026-04-20 20:49 | 36.54057 | -120.59945 | 25545 ft | 431 kts | 311° |
| 2026-04-20 20:49 | 36.56294 | -120.62397 | 25308 ft | 425 kts | 311° |
| 2026-04-20 20:49 | 36.58495 | -120.64826 | 25072 ft | 420 kts | 310° |
| 2026-04-20 20:50 | 36.60672 | -120.67254 | 24838 ft | 422 kts | 310° |
| 2026-04-20 20:50 | 36.62865 | -120.69695 | 24612 ft | 423 kts | 311° |
| 2026-04-20 20:50 | 36.65065 | -120.72126 | 24380 ft | 423 kts | 311° |
| 2026-04-20 20:50 | 36.67264 | -120.74557 | 24156 ft | 422 kts | 310° |
| 2026-04-20 20:51 | 36.69449 | -120.76983 | 23936 ft | 420 kts | 310° |
| 2026-04-20 20:51 | 36.71621 | -120.79402 | 23711 ft | 418 kts | 310° |
| 2026-04-20 20:51 | 36.73786 | -120.81811 | 23474 ft | 416 kts | 310° |
| 2026-04-20 20:51 | 36.75945 | -120.84213 | 23208 ft | 416 kts | 310° |
| 2026-04-20 20:52 | 36.78080 | -120.86590 | 22948 ft | 416 kts | 310° |
| 2026-04-20 20:52 | 36.80243 | -120.88990 | 22682 ft | 416 kts | 310° |
| 2026-04-20 20:52 | 36.82405 | -120.91376 | 22424 ft | 415 kts | 310° |
| 2026-04-20 20:52 | 36.84571 | -120.93772 | 22167 ft | 415 kts | 310° |
| 2026-04-20 20:53 | 36.86729 | -120.96171 | 21915 ft | 414 kts | 310° |
| 2026-04-20 20:53 | 36.88877 | -120.98559 | 21661 ft | 413 kts | 310° |
| 2026-04-20 20:53 | 36.91025 | -121.00947 | 21411 ft | 412 kts | 310° |
| 2026-04-20 20:53 | 36.93153 | -121.03314 | 21159 ft | 408 kts | 310° |
| 2026-04-20 20:54 | 36.95270 | -121.05666 | 20910 ft | 406 kts | 310° |
| 2026-04-20 20:54 | 36.97379 | -121.08015 | 20668 ft | 405 kts | 310° |
| 2026-04-20 20:54 | 36.99480 | -121.10360 | 20428 ft | 404 kts | 310° |
| 2026-04-20 20:54 | 37.01575 | -121.12699 | 20200 ft | 404 kts | 310° |
| 2026-04-20 20:55 | 37.03645 | -121.15012 | 19953 ft | 404 kts | 310° |
| 2026-04-20 20:55 | 37.05742 | -121.17354 | 19715 ft | 404 kts | 311° |
| 2026-04-20 20:55 | 37.07833 | -121.19688 | 19480 ft | 398 kts | 311° |
| 2026-04-20 20:55 | 37.09889 | -121.21989 | 19246 ft | 395 kts | 310° |
| 2026-04-20 20:56 | 37.11941 | -121.24279 | 18898 ft | 396 kts | 312° |
| 2026-04-20 20:56 | 37.14240 | -121.26229 | 18453 ft | 402 kts | 325° |
| 2026-04-20 20:56 | 37.16780 | -121.27699 | 17973 ft | 400 kts | 330° |
| 2026-04-20 20:56 | 37.19322 | -121.29099 | 17382 ft | 398 kts | 331° |
| 2026-04-20 20:57 | 37.21841 | -121.30504 | 16599 ft | 394 kts | 331° |
| 2026-04-20 20:57 | 37.24308 | -121.31888 | 15757 ft | 385 kts | 331° |
| 2026-04-20 20:57 | 37.26731 | -121.33243 | 14936 ft | 378 kts | 332° |
| 2026-04-20 20:57 | 37.29109 | -121.34570 | 14139 ft | 376 kts | 332° |
| 2026-04-20 20:58 | 37.31501 | -121.35908 | 13286 ft | 373 kts | 333° |
| 2026-04-20 20:58 | 37.33862 | -121.37229 | 12408 ft | 369 kts | 332° |
| 2026-04-20 20:58 | 37.36186 | -121.38531 | 11559 ft | 363 kts | 332° |
| 2026-04-20 20:58 | 37.38493 | -121.39827 | 10731 ft | 362 kts | 333° |
| 2026-04-20 20:59 | 37.40771 | -121.41105 | 9907 ft | 355 kts | 334° |
| 2026-04-20 20:59 | 37.43005 | -121.42354 | 9066 ft | 345 kts | 333° |
| 2026-04-20 20:59 | 37.45103 | -121.43531 | 8955 ft | 318 kts | 333° |
| 2026-04-20 20:59 | 37.47081 | -121.44642 | 8938 ft | 306 kts | 333° |
| 2026-04-20 21:00 | 37.49024 | -121.45739 | 8940 ft | 305 kts | 332° |
| 2026-04-20 21:00 | 37.50963 | -121.46835 | 8947 ft | 306 kts | 333° |
| 2026-04-20 21:00 | 37.52922 | -121.47935 | 8943 ft | 309 kts | 333° |
| 2026-04-20 21:00 | 37.54900 | -121.49045 | 8917 ft | 314 kts | 333° |
| 2026-04-20 21:01 | 37.56883 | -121.50162 | 8736 ft | 310 kts | 333° |
| 2026-04-20 21:01 | 37.58834 | -121.51261 | 8541 ft | 302 kts | 332° |
| 2026-04-20 21:01 | 37.60744 | -121.52339 | 8363 ft | 300 kts | 333° |
| 2026-04-20 21:01 | 37.62647 | -121.53415 | 8167 ft | 299 kts | 333° |
| 2026-04-20 21:02 | 37.64525 | -121.54476 | 8003 ft | 301 kts | 333° |
| 2026-04-20 21:02 | 37.66440 | -121.55557 | 7833 ft | 302 kts | 333° |
| 2026-04-20 21:02 | 37.68367 | -121.56645 | 7658 ft | 305 kts | 333° |
| 2026-04-20 21:02 | 37.70218 | -121.57917 | 7478 ft | 301 kts | 323° |
| 2026-04-20 21:03 | 37.71968 | -121.59351 | 7306 ft | 298 kts | 323° |
| 2026-04-20 21:03 | 37.73709 | -121.60744 | 7137 ft | 295 kts | 324° |
| 2026-04-20 21:03 | 37.75444 | -121.62121 | 6967 ft | 296 kts | 324° |
| 2026-04-20 21:03 | 37.77192 | -121.63524 | 6886 ft | 298 kts | 323° |
| 2026-04-20 21:04 | 37.78934 | -121.64924 | 6896 ft | 295 kts | 324° |
| 2026-04-20 21:04 | 37.80671 | -121.66326 | 6949 ft | 300 kts | 322° |
| 2026-04-20 21:04 | 37.82110 | -121.68175 | 6753 ft | 291 kts | 297° |
| 2026-04-20 21:04 | 37.82933 | -121.70423 | 6541 ft | 276 kts | 285° |
| 2026-04-20 21:05 | 37.83574 | -121.72706 | 6320 ft | 274 kts | 283° |
| 2026-04-20 21:05 | 37.84182 | -121.74979 | 6096 ft | 273 kts | 283° |
| 2026-04-20 21:05 | 37.84784 | -121.77254 | 5960 ft | 272 kts | 283° |
| 2026-04-20 21:05 | 37.85384 | -121.79520 | 5964 ft | 271 kts | 283° |
| 2026-04-20 21:06 | 37.85982 | -121.81786 | 5967 ft | 272 kts | 283° |
| 2026-04-20 21:06 | 37.86584 | -121.84068 | 5973 ft | 274 kts | 283° |
| 2026-04-20 21:06 | 37.87185 | -121.86339 | 5964 ft | 269 kts | 283° |
| 2026-04-20 21:06 | 37.87776 | -121.88564 | 5982 ft | 267 kts | 283° |
| 2026-04-20 21:07 | 37.88367 | -121.90790 | 5982 ft | 268 kts | 283° |
| 2026-04-20 21:07 | 37.88954 | -121.93039 | 6001 ft | 270 kts | 283° |
| 2026-04-20 21:07 | 37.89552 | -121.95283 | 5992 ft | 268 kts | 282° |
| 2026-04-20 21:07 | 37.90162 | -121.97512 | 5991 ft | 269 kts | 282° |
| 2026-04-20 21:08 | 37.90774 | -121.99752 | 6000 ft | 269 kts | 283° |
| 2026-04-20 21:08 | 37.91383 | -122.01988 | 6003 ft | 268 kts | 283° |
| 2026-04-20 21:08 | 37.91992 | -122.04222 | 6006 ft | 268 kts | 283° |
| 2026-04-20 21:08 | 37.92603 | -122.06458 | 6008 ft | 269 kts | 283° |
| 2026-04-20 21:09 | 37.93211 | -122.08696 | 6007 ft | 269 kts | 283° |
| 2026-04-20 21:09 | 37.93809 | -122.10913 | 6004 ft | 270 kts | 283° |
| 2026-04-20 21:09 | 37.94419 | -122.13190 | 6004 ft | 268 kts | 283° |
| 2026-04-20 21:09 | 37.94999 | -122.15401 | 6002 ft | 266 kts | 279° |
| 2026-04-20 21:10 | 37.95090 | -122.17687 | 5987 ft | 256 kts | 257° |
| 2026-04-20 21:10 | 37.94805 | -122.19904 | 5991 ft | 255 kts | 253° |
| 2026-04-20 21:10 | 37.94470 | -122.22131 | 6000 ft | 259 kts | 253° |
| 2026-04-20 21:10 | 37.94112 | -122.24358 | 5994 ft | 254 kts | 253° |
| 2026-04-20 21:11 | 37.93762 | -122.26510 | 5992 ft | 245 kts | 252° |
| 2026-04-20 21:11 | 37.93438 | -122.28639 | 5991 ft | 250 kts | 253° |
| 2026-04-20 21:11 | 37.93107 | -122.30810 | 5994 ft | 252 kts | 253° |
| 2026-04-20 21:11 | 37.92761 | -122.33006 | 5995 ft | 255 kts | 253° |
| 2026-04-20 21:12 | 37.92414 | -122.35193 | 5986 ft | 257 kts | 253° |
| 2026-04-20 21:12 | 37.92065 | -122.37393 | 5654 ft | 251 kts | 253° |
| 2026-04-20 21:12 | 37.91734 | -122.39507 | 5302 ft | 238 kts | 253° |
| 2026-04-20 21:12 | 37.91429 | -122.41502 | 4948 ft | 224 kts | 253° |
| 2026-04-20 21:13 | 37.91147 | -122.43399 | 4588 ft | 215 kts | 253° |
| 2026-04-20 21:13 | 37.90893 | -122.45233 | 4218 ft | 208 kts | 253° |
| 2026-04-20 21:13 | 37.90664 | -122.47005 | 3990 ft | 199 kts | 253° |
| 2026-04-20 21:13 | 37.90284 | -122.48598 | 3991 ft | 182 kts | 230° |
| 2026-04-20 21:14 | 37.89298 | -122.49482 | 3970 ft | 180 kts | 194° |
| 2026-04-20 21:14 | 37.88053 | -122.49289 | 3925 ft | 187 kts | 161° |
| 2026-04-20 21:14 | 37.87049 | -122.48137 | 3349 ft | 211 kts | 133° |
| 2026-04-20 21:14 | 37.86284 | -122.46523 | 2995 ft | 210 kts | 128° |
| 2026-04-20 21:15 | 37.85613 | -122.44999 | 2994 ft | 184 kts | 129° |
| 2026-04-20 21:15 | 37.84952 | -122.43686 | 2986 ft | 169 kts | 134° |
| 2026-04-20 21:15 | 37.84188 | -122.42548 | 2609 ft | 171 kts | 139° |
| 2026-04-20 21:15 | 37.83409 | -122.41404 | 2248 ft | 172 kts | 137° |
| 2026-04-20 21:16 | 37.82655 | -122.40245 | 1966 ft | 170 kts | 137° |
| 2026-04-20 21:16 | 37.81903 | -122.39125 | 1791 ft | 167 kts | 136° |
| 2026-04-20 21:16 | 37.81159 | -122.38005 | 1780 ft | 168 kts | 137° |
| 2026-04-20 21:16 | 37.80397 | -122.36844 | 1785 ft | 173 kts | 137° |
| 2026-04-20 21:17 | 37.79640 | -122.35698 | 1788 ft | 167 kts | 137° |
| 2026-04-20 21:17 | 37.78931 | -122.34636 | 1791 ft | 152 kts | 135° |
| 2026-04-20 21:17 | 37.78268 | -122.33636 | 1771 ft | 143 kts | 136° |
| 2026-04-20 21:17 | 37.77667 | -122.32724 | 1628 ft | 127 kts | 136° |
| 2026-04-20 21:18 | 37.77121 | -122.31910 | 1478 ft | 120 kts | 135° |
| 2026-04-20 21:18 | 37.76589 | -122.31105 | 1327 ft | 120 kts | 135° |
| 2026-04-20 21:18 | 37.76045 | -122.30290 | 1177 ft | 121 kts | 135° |
| 2026-04-20 21:18 | 37.75500 | -122.29470 | 1027 ft | 123 kts | 133° |
| 2026-04-20 21:19 | 37.74944 | -122.28630 | 870 ft | 126 kts | 134° |
| 2026-04-20 21:19 | 37.74394 | -122.27799 | 728 ft | 121 kts | 133° |
| 2026-04-20 21:19 | 37.73860 | -122.26998 | 575 ft | 119 kts | 133° |
| 2026-04-20 21:20 | 37.72806 | -122.25415 | 252 ft | 117 kts | 133° |
| 2026-04-20 21:20 | 37.72276 | -122.24611 | 116 ft | 119 kts | 134° |
| 2026-04-20 21:20 | 37.71919 | -122.24077 | 20 ft | 115 kts | 134° |
| 2026-04-20 21:20 | 37.71391 | -122.23291 | 9 ft | 56 kts | 130° |
| 2026-04-20 21:21 | 37.71154 | -122.22936 | 12 ft | 48 kts | 130° |
| 2026-04-20 21:21 | 37.70939 | -122.22618 | 9 ft | 48 kts | 130° |
| 2026-04-20 21:21 | 37.70741 | -122.22312 | 11 ft | 43 kts | 126° |
| 2026-04-20 21:21 | 37.70633 | -122.22022 | 16 ft | 29 kts | 101° |
| 2026-04-20 21:22 | 37.70625 | -122.21933 | 17 ft | 0 kts | 89° |